Time;durP1;ratioP1;P1;durP2;ratioP2;P2;SDS_P1;SDS_P2;PMS_P1;PMS_P2;Temp;Humidity;BMP_temperature;BMP_pressure;BME280_temperature;BME280_humidity;BME280_pressure;Samples;Min_cycle;Max_cycle;Signal;HPM_P1;HPM_P2
2023/09/27 00:01:10;;;;;;;4.30;2.20;;;20.70;66.00;;;;;;5073037;28;20321;-56
2023/09/27 00:03:38;;;;;;;4.18;2.10;;;20.80;66.00;;;;;;5073535;28;20276;-56
2023/09/27 00:06:05;;;;;;;5.88;2.33;;;20.80;66.10;;;;;;5072648;28;20242;-56
2023/09/27 00:08:33;;;;;;;5.13;2.38;;;20.80;66.10;;;;;;5073441;28;20219;-55
2023/09/27 00:11:03;;;;;;;4.65;2.35;;;20.70;66.00;;;;;;5072647;28;20209;-57
2023/09/27 00:13:31;;;;;;;4.50;2.08;;;20.70;66.00;;;;;;5072260;28;20250;-60
2023/09/27 00:16:00;;;;;;;6.50;2.45;;;20.80;66.00;;;;;;5073024;28;20199;-58
2023/09/27 00:18:27;;;;;;;6.65;2.60;;;20.70;66.00;;;;;;5072777;28;20238;-59
2023/09/27 00:20:55;;;;;;;4.40;1.92;;;20.80;66.00;;;;;;5072186;28;20642;-61
2023/09/27 00:23:22;;;;;;;4.75;2.35;;;20.70;65.90;;;;;;5072799;28;20222;-59
2023/09/27 00:25:50;;;;;;;7.35;2.00;;;20.70;66.00;;;;;;5072069;28;20195;-58
2023/09/27 00:31:04;;;;;;;7.18;2.08;;;20.70;66.00;;;;;;5060825;28;20252;-57
2023/09/27 00:33:42;;;;;;;;;;;;;;;;;;;;;
2023/09/27 00:36:09;;;;;;;6.95;2.15;;;20.70;65.90;;;;;;5019964;28;20660;-56
2023/09/27 00:38:37;;;;;;;5.15;2.47;;;20.70;66.00;;;;;;5072266;28;20238;-53
2023/09/27 00:41:06;;;;;;;3.88;1.90;;;20.70;66.00;;;;;;5072256;28;20183;-53
2023/09/27 00:43:35;;;;;;;3.40;1.77;;;20.80;66.00;;;;;;5072117;28;20268;-54
2023/09/27 00:46:05;;;;;;;7.13;2.40;;;20.70;65.90;;;;;;5071916;28;20222;-56
2023/09/27 00:48:33;;;;;;;5.85;2.40;;;20.70;65.90;;;;;;5072024;28;20223;-58
2023/09/27 00:51:03;;;;;;;5.80;2.28;;;20.70;65.90;;;;;;5071514;28;20198;-58
2023/09/27 00:53:33;;;;;;;5.78;2.30;;;20.70;65.90;;;;;;5072012;28;20242;-57
2023/09/27 00:56:02;;;;;;;6.40;2.63;;;20.70;65.90;;;;;;5071749;28;20202;-55
2023/09/27 00:58:31;;;;;;;5.53;2.42;;;20.60;65.80;;;;;;5072455;28;20227;-60
2023/09/27 01:00:59;;;;;;;7.53;2.10;;;20.70;66.00;;;;;;5071207;28;20195;-61
2023/09/27 01:03:28;;;;;;;4.35;2.30;;;20.70;66.00;;;;;;5071903;28;20603;-57
2023/09/27 01:05:56;;;;;;;5.30;2.20;;;20.70;66.00;;;;;;5072058;28;20195;-58
2023/09/27 01:08:29;;;;;;;6.53;2.30;;;20.70;66.00;;;;;;5070790;28;20254;-59
2023/09/27 01:10:57;;;;;;;6.90;2.35;;;20.70;65.90;;;;;;5071076;28;20222;-57
2023/09/27 01:13:25;;;;;;;6.43;2.60;;;20.70;66.00;;;;;;5071520;28;20219;-58
2023/09/27 01:15:52;;;;;;;5.22;2.58;;;20.70;66.00;;;;;;5071273;28;20202;-56
2023/09/27 01:18:20;;;;;;;4.07;1.98;;;20.70;66.00;;;;;;5071719;28;20239;-55
2023/09/27 01:20:58;;;;;;;4.55;2.40;;;20.70;66.00;;;;;;5071396;28;20191;-60
2023/09/27 01:23:28;;;;;;;5.40;2.05;;;20.60;65.90;;;;;;5071804;28;20231;-58
2023/09/27 01:25:59;;;;;;;6.10;2.40;;;20.70;66.00;;;;;;5071625;28;20610;-58
2023/09/27 01:28:27;;;;;;;5.85;2.10;;;20.70;66.00;;;;;;5071952;28;20347;-58
2023/09/27 01:30:54;;;;;;;9.00;2.40;;;20.70;66.00;;;;;;5071209;28;21058;-62
2023/09/27 01:33:25;;;;;;;5.00;2.25;;;20.70;66.00;;;;;;5070371;28;20230;-59
2023/09/27 01:35:54;;;;;;;4.93;2.00;;;20.70;66.00;;;;;;5071119;28;20653;-60
2023/09/27 01:38:22;;;;;;;5.18;2.08;;;20.70;66.00;;;;;;5071670;28;20230;-61
2023/09/27 01:40:50;;;;;;;4.13;2.00;;;20.70;66.00;;;;;;5070949;28;20232;-55
2023/09/27 01:43:18;;;;;;;7.65;2.25;;;20.70;66.00;;;;;;5071141;28;20305;-57
2023/09/27 01:45:52;;;;;;;6.50;2.10;;;20.70;66.00;;;;;;5070840;28;20191;-60
2023/09/27 01:48:21;;;;;;;5.20;1.95;;;20.70;66.00;;;;;;5070155;28;20305;-58
2023/09/27 01:50:49;;;;;;;4.93;2.08;;;20.60;65.80;;;;;;5071069;28;20190;-59
2023/09/27 01:53:17;;;;;;;6.38;2.22;;;20.70;66.00;;;;;;5070442;28;20218;-56
2023/09/27 01:55:47;;;;;;;6.38;2.50;;;20.70;65.90;;;;;;5070657;28;20183;-60
2023/09/27 01:58:16;;;;;;;6.80;2.10;;;20.70;66.00;;;;;;5070811;28;20292;-57
2023/09/27 02:00:43;;;;;;;5.72;2.10;;;20.70;66.00;;;;;;5071146;28;20256;-55
2023/09/27 02:03:11;;;;;;;4.28;1.63;;;20.70;66.00;;;;;;5070727;28;20237;-55
2023/09/27 02:05:38;;;;;;;4.22;2.15;;;20.70;66.00;;;;;;5071182;28;20183;-58
2023/09/27 02:08:07;;;;;;;4.72;2.05;;;20.60;65.90;;;;;;5071284;28;20223;-59
2023/09/27 02:10:34;;;;;;;4.10;2.05;;;20.70;66.00;;;;;;5070685;28;20187;-58
2023/09/27 02:13:01;;;;;;;6.13;2.40;;;20.60;65.80;;;;;;5070761;28;20280;-56
2023/09/27 02:15:30;;;;;;;4.78;1.95;;;20.60;65.80;;;;;;5070811;28;20199;-58
2023/09/27 02:17:58;;;;;;;4.57;2.00;;;20.60;65.90;;;;;;5070846;28;20231;-57
2023/09/27 02:20:25;;;;;;;5.60;2.28;;;20.70;65.90;;;;;;5073086;28;20281;-58
2023/09/27 02:22:55;;;;;;;3.65;2.10;;;20.60;65.90;;;;;;5075241;28;20229;-58
2023/09/27 02:25:23;;;;;;;5.32;2.40;;;20.60;65.80;;;;;;5074440;28;20197;-57
2023/09/27 02:27:50;;;;;;;4.32;2.03;;;20.60;65.90;;;;;;5075164;28;20254;-60
2023/09/27 02:30:17;;;;;;;4.28;2.13;;;20.60;65.90;;;;;;5074893;28;20199;-54
2023/09/27 02:32:46;;;;;;;3.70;1.98;;;20.60;65.80;;;;;;5072927;28;20233;-58
2023/09/27 02:35:14;;;;;;;4.28;1.88;;;20.60;65.80;;;;;;5074297;28;20704;-58
2023/09/27 02:37:43;;;;;;;5.93;2.03;;;20.60;65.70;;;;;;5074998;28;20301;-58
2023/09/27 02:40:12;;;;;;;4.75;1.90;;;20.60;65.80;;;;;;5074304;28;20195;-57
2023/09/27 02:42:40;;;;;;;5.97;2.40;;;20.60;65.90;;;;;;5067892;28;20217;-53
2023/09/27 02:45:09;;;;;;;8.55;2.13;;;20.60;65.70;;;;;;5069756;28;20602;-59
2023/09/27 02:47:37;;;;;;;4.38;1.95;;;20.60;65.80;;;;;;5074119;28;20230;-57
2023/09/27 02:50:09;;;;;;;5.63;2.30;;;20.60;65.70;;;;;;5074573;28;20209;-60
2023/09/27 02:52:38;;;;;;;6.28;2.10;;;20.60;65.70;;;;;;5073876;28;20195;-53
2023/09/27 02:55:08;;;;;;;3.47;1.90;;;20.60;65.70;;;;;;5074115;28;20195;-58
2023/09/27 02:57:39;;;;;;;6.07;2.33;;;20.60;65.70;;;;;;5073819;28;20210;-56
2023/09/27 03:02:57;;;;;;;4.45;1.95;;;20.70;65.90;;;;;;5060061;28;20272;-57
2023/09/27 03:05:26;;;;;;;4.78;1.80;;;20.60;65.70;;;;;;5074078;28;20671;-53
2023/09/27 03:07:53;;;;;;;8.07;2.38;;;20.60;65.70;;;;;;5074500;28;20223;-56
2023/09/27 03:10:21;;;;;;;4.93;2.40;;;20.50;65.60;;;;;;5073327;28;20199;-59
2023/09/27 03:12:49;;;;;;;4.07;1.60;;;20.60;65.70;;;;;;5074191;28;20219;-58
2023/09/27 03:15:17;;;;;;;5.50;2.50;;;20.60;65.70;;;;;;5073921;28;20233;-58
2023/09/27 03:17:45;;;;;;;7.55;2.00;;;20.60;65.70;;;;;;5073632;28;20323;-59
2023/09/27 03:20:15;;;;;;;5.53;1.70;;;20.60;66.40;;;;;;5073265;28;20237;-57
2023/09/27 03:22:45;;;;;;;4.50;1.88;;;20.60;65.60;;;;;;5073223;28;20661;-56
2023/09/27 03:25:12;;;;;;;4.65;2.17;;;20.50;65.50;;;;;;5073864;28;20191;-58
2023/09/27 03:27:39;;;;;;;3.10;1.77;;;20.50;65.50;;;;;;5074006;28;20191;-51
2023/09/27 03:30:08;;;;;;;6.63;1.90;;;20.50;65.50;;;;;;5073645;28;20202;-58
2023/09/27 03:32:35;;;;;;;6.28;2.20;;;20.60;65.60;;;;;;5072525;28;20279;-60
2023/09/27 03:35:04;;;;;;;4.47;1.80;;;20.50;65.50;;;;;;5073879;28;20202;-59
2023/09/27 03:37:31;;;;;;;3.63;1.83;;;20.60;65.60;;;;;;5073345;28;20194;-60
2023/09/27 03:46:07;;;;;;;4.43;2.15;;;20.50;65.50;;;;;;5073362;28;20213;-60
2023/09/27 03:48:35;;;;;;;6.50;1.83;;;20.50;65.50;;;;;;5073357;28;20309;-57
2023/09/27 03:51:02;;;;;;;3.97;1.90;;;20.50;65.50;;;;;;5073274;28;20206;-62
2023/09/27 03:53:30;;;;;;;6.53;2.03;;;20.50;65.50;;;;;;5073523;28;20219;-55
2023/09/27 03:55:59;;;;;;;5.15;1.90;;;20.50;65.50;;;;;;5072747;28;20281;-61
2023/09/27 03:58:26;;;;;;;5.90;2.08;;;20.50;65.60;;;;;;5072687;28;20234;-56
2023/09/27 04:00:54;;;;;;;4.20;1.73;;;20.50;65.50;;;;;;5072748;28;20202;-61
2023/09/27 04:03:22;;;;;;;5.55;2.25;;;20.50;65.50;;;;;;5071616;28;20226;-59
2023/09/27 04:05:51;;;;;;;11.88;2.58;;;20.50;65.50;;;;;;5073560;28;20191;-59
2023/09/27 04:08:18;;;;;;;4.32;2.03;;;20.50;65.60;;;;;;5073127;28;20630;-55
2023/09/27 04:10:46;;;;;;;5.15;1.92;;;20.50;65.60;;;;;;5072832;28;20218;-60
2023/09/27 04:13:15;;;;;;;6.40;2.08;;;20.50;65.50;;;;;;5072940;28;20306;-56
2023/09/27 04:15:44;;;;;;;3.47;1.98;;;20.50;65.50;;;;;;5072964;28;20199;-62
2023/09/27 04:18:12;;;;;;;7.03;1.88;;;20.50;65.50;;;;;;5072292;28;20218;-53
2023/09/27 04:20:54;;;;;;;5.50;1.77;;;20.50;65.50;;;;;;5071945;28;20290;-54
2023/09/27 04:24:02;;;;;;;4.78;2.13;;;20.50;65.50;;;;;;5072102;28;20775;-57
2023/09/27 04:26:29;;;;;;;4.63;2.10;;;20.50;65.60;;;;;;5039604;28;20282;-57
2023/09/27 04:29:13;;;;;;;5.90;2.60;;;20.50;65.60;;;;;;5072980;28;20215;-54
2023/09/27 04:31:41;;;;;;;3.58;2.08;;;20.50;65.60;;;;;;5071072;28;20199;-56
2023/09/27 04:34:09;;;;;;;4.32;2.30;;;20.50;65.60;;;;;;5072611;28;20704;-59
2023/09/27 04:36:37;;;;;;;4.70;1.65;;;20.50;65.60;;;;;;5071933;28;20266;-53
2023/09/27 04:39:07;;;;;;;4.00;1.85;;;20.50;65.60;;;;;;5071386;28;20234;-55
2023/09/27 04:41:34;;;;;;;4.78;2.03;;;20.50;65.60;;;;;;5071832;28;20183;-59
2023/09/27 04:44:01;;;;;;;4.97;2.10;;;20.50;65.60;;;;;;5071996;28;20305;-57
2023/09/27 04:46:30;;;;;;;4.57;2.40;;;20.40;65.50;;;;;;5072028;28;20230;-53
2023/09/27 04:48:58;;;;;;;5.50;2.00;;;20.50;66.40;;;;;;5072332;28;20313;-58
2023/09/27 04:51:25;;;;;;;5.88;2.53;;;20.50;65.60;;;;;;5071689;28;20199;-63
2023/09/27 04:53:53;;;;;;;3.60;1.95;;;20.50;65.60;;;;;;5072302;28;20215;-55
2023/09/27 04:56:21;;;;;;;5.05;2.53;;;20.50;65.60;;;;;;5072066;28;20195;-56
2023/09/27 04:58:48;;;;;;;4.18;1.98;;;20.50;65.70;;;;;;5071966;28;20230;-60
2023/09/27 05:01:17;;;;;;;4.95;1.90;;;20.50;65.70;;;;;;5071458;28;20333;-60
2023/09/27 05:03:46;;;;;;;2.72;1.90;;;20.50;65.70;;;;;;5071625;28;20222;-61
2023/09/27 05:06:13;;;;;;;7.35;2.55;;;20.50;65.70;;;;;;5072226;28;20202;-59
2023/09/27 05:08:41;;;;;;;6.43;1.88;;;20.50;65.70;;;;;;5071792;28;20219;-59
2023/09/27 05:11:09;;;;;;;5.07;2.30;;;20.50;65.70;;;;;;5071747;28;20286;-57
2023/09/27 05:16:58;;;;;;;5.38;2.50;;;20.50;65.80;;;;;;5071360;28;20174;-60
2023/09/27 05:22:48;;;;;;;4.82;2.15;;;20.50;65.70;;;;;;5067499;28;20186;-57
2023/09/27 05:25:16;;;;;;;3.83;2.20;;;20.40;65.70;;;;;;5070965;28;20203;-61
2023/09/27 05:27:44;;;;;;;4.72;2.38;;;20.50;65.80;;;;;;5071323;28;20183;-58
2023/09/27 05:30:12;;;;;;;4.03;2.28;;;20.40;65.70;;;;;;5071507;28;20413;-61
2023/09/27 05:32:40;;;;;;;7.03;2.30;;;20.50;65.80;;;;;;5071338;28;20191;-59
2023/09/27 05:35:09;;;;;;;5.65;2.20;;;20.50;65.80;;;;;;5071439;28;20234;-60
2023/09/27 05:41:47;;;;;;;4.75;2.20;;;20.40;65.70;;;;;;5048131;28;20337;-58
2023/09/27 05:44:16;;;;;;;3.92;2.05;;;20.40;65.70;;;;;;5042238;28;20215;-60
2023/09/27 05:47:01;;;;;;;4.00;2.10;;;20.40;65.80;;;;;;5070588;28;20348;-58
2023/09/27 05:49:31;;;;;;;4.03;2.15;;;20.50;65.90;;;;;;5062746;28;20223;-61
2023/09/27 05:51:58;;;;;;;5.15;2.35;;;20.40;65.80;;;;;;5070860;28;21576;-58
2023/09/27 05:54:26;;;;;;;3.85;2.17;;;20.40;65.80;;;;;;5070617;28;20221;-63
2023/09/27 05:56:55;;;;;;;5.97;2.20;;;20.40;65.80;;;;;;5071393;28;20190;-53
2023/09/27 05:59:25;;;;;;;4.28;2.30;;;20.40;65.90;;;;;;5070979;28;20340;-59
2023/09/27 06:01:52;;;;;;;5.70;2.78;;;20.40;65.80;;;;;;5070236;28;20195;-60
2023/09/27 06:04:23;;;;;;;5.75;2.13;;;20.50;66.00;;;;;;5071132;28;20230;-59
2023/09/27 06:06:50;;;;;;;5.22;2.30;;;20.40;65.90;;;;;;5070432;28;20202;-54
2023/09/27 06:09:18;;;;;;;4.30;1.90;;;20.50;66.00;;;;;;5071158;28;20288;-55
2023/09/27 06:11:46;;;;;;;4.43;2.40;;;20.40;65.90;;;;;;5071150;28;20186;-56
2023/09/27 06:14:14;;;;;;;5.40;2.33;;;20.40;65.90;;;;;;5069413;28;20222;-56
2023/09/27 06:16:45;;;;;;;3.78;2.13;;;20.40;65.90;;;;;;5071192;28;20199;-57
2023/09/27 06:21:54;;;;;;;5.30;2.88;;;20.40;65.90;;;;;;5061400;28;20644;-58
2023/09/27 06:24:22;;;;;;;4.43;2.47;;;20.50;66.00;;;;;;5071051;28;20214;-56
2023/09/27 06:26:50;;;;;;;4.35;2.40;;;20.40;65.90;;;;;;5070142;28;20187;-62
2023/09/27 06:29:21;;;;;;;4.72;2.08;;;20.40;66.00;;;;;;5070495;28;20272;-61
2023/09/27 06:31:56;;;;;;;4.07;2.30;;;20.40;65.90;;;;;;5070943;28;20719;-58
2023/09/27 06:34:24;;;;;;;5.05;2.30;;;20.40;65.90;;;;;;5063543;28;20226;-61
2023/09/27 06:36:56;;;;;;;3.78;2.42;;;20.40;65.90;;;;;;5068370;28;20195;-59
2023/09/27 06:39:26;;;;;;;5.07;2.13;;;20.40;66.00;;;;;;5027604;28;20611;-54
2023/09/27 06:41:55;;;;;;;6.55;2.00;;;20.40;66.00;;;;;;5051574;28;20734;-57
2023/09/27 06:44:24;;;;;;;6.05;2.45;;;20.40;66.00;;;;;;5066646;28;20226;-61
2023/09/27 06:46:55;;;;;;;9.05;2.50;;;20.40;65.90;;;;;;5068787;28;20230;-57
2023/09/27 06:49:25;;;;;;;4.80;2.45;;;20.40;65.90;;;;;;5055496;28;20246;-60
2023/09/27 06:51:57;;;;;;;6.57;2.70;;;20.40;65.90;;;;;;5063386;28;20227;-59
2023/09/27 06:57:16;;;;;;;6.50;2.60;;;20.40;65.90;;;;;;5054830;28;20194;-61
2023/09/27 07:02:59;;;;;;;5.13;2.33;;;20.50;65.90;;;;;;5024798;28;20687;-61
2023/09/27 07:05:30;;;;;;;5.32;2.00;;;20.40;65.90;;;;;;5014379;28;20213;-62
2023/09/27 07:08:00;;;;;;;5.90;2.10;;;20.50;66.00;;;;;;5010130;28;20751;-64
2023/09/27 07:10:33;;;;;;;6.88;2.83;;;20.50;66.10;;;;;;5013675;28;20616;-58
2023/09/27 07:13:06;;;;;;;6.88;2.80;;;20.50;66.20;;;;;;5007488;28;20205;-57
2023/09/27 07:15:39;;;;;;;7.63;2.08;;;20.50;66.40;;;;;;4993175;28;20217;-59
2023/09/27 07:21:39;;;;;;;7.68;2.30;;;20.50;66.80;;;;;;4938350;29;20960;-57
2023/09/27 07:24:13;;;;;;;3.75;2.35;;;20.60;66.50;;;;;;4943185;29;20671;-59
2023/09/27 07:26:52;;;;;;;4.75;2.22;;;20.60;66.40;;;;;;4985303;28;20208;-56
2023/09/27 07:29:42;;;;;;;6.88;2.40;;;20.70;66.30;;;;;;4965643;28;20586;-59
2023/09/27 07:35:27;;;;;;;5.72;2.72;;;20.80;66.50;;;;;;4900112;29;20273;-59
2023/09/27 07:37:58;;;;;;;6.10;2.10;;;20.80;66.40;;;;;;4909847;29;20201;-58
2023/09/27 07:40:53;;;;;;;8.60;2.25;;;20.90;66.40;;;;;;4922401;28;20260;-56
2023/09/27 07:43:58;;;;;;;13.75;2.50;;;21.00;66.70;;;;;;4941147;28;20347;-56
2023/09/27 07:49:16;;;;;;;5.15;2.20;;;21.00;66.30;;;;;;4959869;28;20352;-60
2023/09/27 07:51:51;;;;;;;7.85;2.63;;;21.10;66.20;;;;;;4965684;28;20203;-59
2023/09/27 07:54:27;;;;;;;9.77;2.42;;;21.20;66.30;;;;;;4963492;28;20230;-57
2023/09/27 07:57:05;;;;;;;5.63;2.33;;;21.10;65.90;;;;;;4918025;28;20832;-55
2023/09/27 07:59:57;;;;;;;5.25;2.30;;;21.20;66.00;;;;;;4966640;28;20237;-58
2023/09/27 08:02:37;;;;;;;5.82;2.17;;;21.20;66.00;;;;;;4964016;28;21445;-58
2023/09/27 08:08:05;;;;;;;10.65;2.55;;;21.30;65.80;;;;;;4956265;28;20572;-56
2023/09/27 08:10:47;;;;;;;7.45;2.30;;;21.30;65.90;;;;;;4934794;29;20255;-56
2023/09/27 08:17:04;;;;;;;12.90;2.55;;;21.40;65.80;;;;;;5057375;28;20872;-54
2023/09/27 08:19:38;;;;;;;7.45;2.95;;;21.40;65.80;;;;;;5060779;28;20293;-58
2023/09/27 08:25:41;;;;;;;8.27;2.50;;;21.40;65.80;;;;;;4938155;29;20320;-58
2023/09/27 08:28:12;;;;;;;9.05;2.78;;;21.40;65.80;;;;;;5051191;28;20226;-57
2023/09/27 08:30:45;;;;;;;7.43;2.50;;;21.50;65.70;;;;;;5027575;28;20276;-60
2023/09/27 08:33:15;;;;;;;6.70;2.50;;;21.50;65.70;;;;;;5066268;28;20202;-60
2023/09/27 08:35:56;;;;;;;10.55;2.42;;;21.50;65.60;;;;;;5048214;28;20224;-58
2023/09/27 08:38:27;;;;;;;9.00;2.42;;;21.50;65.60;;;;;;5045032;28;20253;-59
2023/09/27 08:41:03;;;;;;;11.70;2.63;;;21.50;65.60;;;;;;5051070;28;20280;-58
2023/09/27 08:43:36;;;;;;;15.02;2.40;;;21.50;65.50;;;;;;5051529;28;20203;-59
2023/09/27 08:48:51;;;;;;;6.47;2.17;;;21.60;65.50;;;;;;5059435;28;20270;-57
2023/09/27 08:51:22;;;;;;;11.75;2.47;;;21.50;65.30;;;;;;5063506;28;20222;-58
2023/09/27 08:53:59;;;;;;;10.57;2.55;;;21.60;65.60;;;;;;5061338;28;20286;-56
2023/09/27 08:56:34;;;;;;;9.80;2.92;;;21.60;65.40;;;;;;5061015;28;20230;-56
2023/09/27 08:59:05;;;;;;;12.13;2.30;;;21.60;65.50;;;;;;5066993;28;20272;-51
2023/09/27 09:01:40;;;;;;;7.72;2.50;;;21.60;66.40;;;;;;5015115;28;20261;-56
2023/09/27 09:04:12;;;;;;;7.72;2.45;;;21.60;65.20;;;;;;5064735;28;20187;-60
2023/09/27 09:06:43;;;;;;;8.13;2.50;;;21.70;65.50;;;;;;5041280;28;20254;-55
2023/09/27 09:09:17;;;;;;;5.40;2.30;;;21.70;65.50;;;;;;5066661;28;20203;-56
2023/09/27 09:14:49;;;;;;;8.70;2.72;;;21.70;65.30;;;;;;5068443;28;20202;-59
2023/09/27 09:17:25;;;;;;;10.52;2.78;;;21.70;65.20;;;;;;5062351;28;20777;-57
2023/09/27 09:20:23;;;;;;;7.43;2.30;;;21.80;65.30;;;;;;5015360;28;20616;-56
2023/09/27 09:22:57;;;;;;;5.93;1.88;;;21.80;65.00;;;;;;5058909;28;20229;-56
2023/09/27 09:25:29;;;;;;;10.75;2.30;;;21.80;64.90;;;;;;5073574;28;20197;-56
2023/09/27 09:28:08;;;;;;;6.85;2.95;;;21.80;64.90;;;;;;5053995;28;20219;-55
2023/09/27 09:30:39;;;;;;;8.15;2.40;;;21.80;64.80;;;;;;4969526;28;20203;-57
2023/09/27 09:36:05;;;;;;;6.35;2.25;;;21.70;64.60;;;;;;5057121;28;20320;-59
2023/09/27 09:42:00;;;;;;;3.83;2.00;;;21.70;64.80;;;;;;5065740;28;20280;-55
2023/09/27 09:44:37;;;;;;;5.68;2.10;;;21.70;64.70;;;;;;5013008;28;20206;-56
2023/09/27 09:47:15;;;;;;;5.97;1.98;;;21.50;64.40;;;;;;5064221;28;20651;-60
2023/09/27 09:52:57;;;;;;;11.25;2.20;;;21.60;64.60;;;;;;5059585;28;20714;-59
2023/09/27 09:55:29;;;;;;;4.10;2.05;;;21.60;65.40;;;;;;5062348;28;20202;-50
2023/09/27 09:58:06;;;;;;;8.10;2.40;;;21.60;64.70;;;;;;5065757;28;20306;-56
2023/09/27 10:00:53;;;;;;;4.93;2.08;;;21.60;64.60;;;;;;5008934;28;20222;-52
2023/09/27 10:09:59;;;;;;;7.18;2.42;;;21.60;64.50;;;;;;4974872;28;20190;-60
2023/09/27 10:12:28;;;;;;;4.47;1.92;;;21.60;64.50;;;;;;4967617;28;20230;-56
2023/09/27 10:17:45;;;;;;;7.65;2.20;;;21.60;64.40;;;;;;5021342;28;20225;-58
2023/09/27 10:20:14;;;;;;;5.28;2.05;;;21.60;64.40;;;;;;5011517;28;20216;-62
2023/09/27 10:22:52;;;;;;;4.43;1.92;;;21.60;64.40;;;;;;5048301;28;20218;-57
2023/09/27 10:25:57;;;;;;;3.78;1.70;;;21.60;64.30;;;;;;4980736;28;20207;-57
2023/09/27 10:28:26;;;;;;;8.40;1.77;;;21.60;64.30;;;;;;5058710;28;20311;-55
2023/09/27 10:31:07;;;;;;;5.53;2.10;;;21.60;64.40;;;;;;5054234;28;20199;-54
2023/09/27 10:33:41;;;;;;;5.47;1.88;;;21.60;64.30;;;;;;5051501;28;20277;-52
2023/09/27 10:36:31;;;;;;;4.70;1.73;;;21.50;64.20;;;;;;4974097;28;20282;-56
2023/09/27 10:49:20;;;;;;;5.03;2.03;;;21.50;64.20;;;;;;5065911;28;20194;-56
2023/09/27 10:51:54;;;;;;;4.13;1.70;;;21.40;64.20;;;;;;5050246;28;20190;-54
2023/09/27 10:54:28;;;;;;;10.18;2.20;;;21.50;64.40;;;;;;4979674;28;20475;-60
2023/09/27 10:56:58;;;;;;;3.15;1.83;;;21.40;64.20;;;;;;5070890;28;20230;-57
2023/09/27 10:59:27;;;;;;;4.60;2.13;;;21.40;64.20;;;;;;5068677;28;20205;-56
2023/09/27 11:01:58;;;;;;;3.95;1.77;;;21.40;64.20;;;;;;5070896;28;20234;-60
2023/09/27 11:10:41;;;;;;;4.32;2.00;;;21.40;64.20;;;;;;4989759;28;20240;-57
2023/09/27 11:13:11;;;;;;;3.95;1.88;;;21.50;64.30;;;;;;4986545;28;20324;-55
2023/09/27 11:15:41;;;;;;;4.03;1.70;;;21.40;64.20;;;;;;4982836;28;20519;-56
2023/09/27 11:18:12;;;;;;;3.45;1.52;;;21.40;64.20;;;;;;4987891;28;20230;-57
2023/09/27 11:20:43;;;;;;;3.30;2.00;;;21.40;64.20;;;;;;4987567;28;20214;-53
2023/09/27 11:23:15;;;;;;;5.80;2.10;;;21.40;64.30;;;;;;4985945;28;20315;-58
2023/09/27 11:25:57;;;;;;;3.03;1.92;;;21.50;64.30;;;;;;5007339;28;20208;-55
2023/09/27 11:28:25;;;;;;;7.38;2.20;;;21.40;64.20;;;;;;5000109;28;20234;-54
2023/09/27 11:31:03;;;;;;;4.20;2.13;;;21.50;64.30;;;;;;5028527;28;20197;-60
2023/09/27 11:33:34;;;;;;;4.03;2.08;;;21.40;64.20;;;;;;5027671;28;20624;-56
2023/09/27 11:36:08;;;;;;;2.90;1.85;;;21.50;64.30;;;;;;4992591;28;20294;-56
2023/09/27 11:38:39;;;;;;;6.13;1.92;;;21.40;64.20;;;;;;5027991;28;20204;-59
2023/09/27 11:41:14;;;;;;;3.45;1.80;;;21.50;64.30;;;;;;4976362;28;20314;-57
2023/09/27 11:43:47;;;;;;;5.30;2.00;;;21.50;64.20;;;;;;4982016;28;20218;-51
2023/09/27 11:46:29;;;;;;;3.10;1.90;;;21.50;64.20;;;;;;5066221;28;20191;-56
2023/09/27 11:49:10;;;;;;;2.95;1.50;;;21.50;64.20;;;;;;5069967;28;20219;-59
2023/09/27 11:55:09;;;;;;;4.47;2.08;;;21.50;64.30;;;;;;5070278;28;20627;-53
2023/09/27 11:57:43;;;;;;;4.25;1.83;;;21.50;64.30;;;;;;5069949;28;20225;-55
2023/09/27 12:00:26;;;;;;;5.15;2.03;;;21.60;64.40;;;;;;5063357;28;20195;-58
2023/09/27 12:02:55;;;;;;;9.88;2.28;;;21.60;64.30;;;;;;5057404;28;20223;-54
2023/09/27 12:05:24;;;;;;;5.45;1.95;;;21.60;64.20;;;;;;5011671;28;20234;-53
2023/09/27 12:08:06;;;;;;;4.57;1.83;;;21.70;64.30;;;;;;5046944;28;20225;-57
2023/09/27 12:10:39;;;;;;;5.28;1.98;;;21.70;64.40;;;;;;5041857;28;20215;-56
2023/09/27 12:13:09;;;;;;;4.53;1.92;;;21.70;64.30;;;;;;5062895;28;20222;-55
2023/09/27 12:15:39;;;;;;;3.97;2.13;;;21.60;64.10;;;;;;4994468;28;20200;-58
2023/09/27 12:18:07;;;;;;;6.40;1.90;;;21.70;64.20;;;;;;5016749;28;20221;-59
2023/09/27 12:20:39;;;;;;;5.07;2.10;;;21.70;64.30;;;;;;4953335;28;20204;-54
2023/09/27 12:23:13;;;;;;;7.57;1.95;;;21.70;64.40;;;;;;4989412;28;20286;-52
2023/09/27 12:25:46;;;;;;;9.65;2.40;;;21.70;64.40;;;;;;4995727;28;20204;-60
2023/09/27 12:28:14;;;;;;;4.82;2.17;;;21.70;64.40;;;;;;5019713;28;20318;-55
2023/09/27 12:30:43;;;;;;;4.18;2.70;;;21.70;64.60;;;;;;4999610;28;20715;-59
2023/09/27 12:33:13;;;;;;;6.38;2.70;;;21.80;64.60;;;;;;5014625;28;20226;-53
2023/09/27 12:35:41;;;;;;;7.13;2.33;;;21.80;65.40;;;;;;4989000;28;20201;-58
2023/09/27 12:38:10;;;;;;;9.50;2.17;;;21.80;64.50;;;;;;4944457;28;20217;-56
2023/09/27 12:40:37;;;;;;;4.15;2.08;;;21.90;64.40;;;;;;4999315;28;20216;-57
2023/09/27 12:43:12;;;;;;;5.82;1.88;;;21.90;64.20;;;;;;5001238;28;20221;-58
2023/09/27 12:46:01;;;;;;;11.48;2.10;;;21.90;64.30;;;;;;4997604;28;20200;-57
2023/09/27 12:48:28;;;;;;;4.45;2.40;;;21.90;64.20;;;;;;4988491;28;20241;-61
2023/09/27 12:50:56;;;;;;;4.30;2.10;;;21.90;64.20;;;;;;5008638;28;20256;-56
2023/09/27 12:53:27;;;;;;;2.67;1.90;;;21.90;64.40;;;;;;4995815;28;20233;-56
2023/09/27 12:55:56;;;;;;;6.35;2.20;;;21.90;64.40;;;;;;5005679;28;20279;-56
2023/09/27 13:01:16;;;;;;;4.15;2.15;;;21.90;64.20;;;;;;4997194;28;20287;-56
2023/09/27 13:03:56;;;;;;;7.93;2.40;;;22.00;64.30;;;;;;4998880;28;20675;-58
2023/09/27 13:06:25;;;;;;;6.95;2.38;;;21.90;64.20;;;;;;4994845;28;20203;-55
2023/09/27 13:08:54;;;;;;;3.28;2.15;;;21.90;64.20;;;;;;4999002;28;20247;-53
2023/09/27 13:11:22;;;;;;;5.53;2.22;;;21.90;64.20;;;;;;4999647;28;20205;-56
2023/09/27 13:13:50;;;;;;;5.93;2.67;;;21.90;64.20;;;;;;5001366;28;20217;-55
2023/09/27 13:16:17;;;;;;;5.45;2.40;;;22.00;64.20;;;;;;5000723;28;20280;-58
2023/09/27 13:18:44;;;;;;;4.68;2.20;;;21.90;64.20;;;;;;5001643;28;20228;-57
2023/09/27 13:21:12;;;;;;;4.85;2.20;;;21.90;64.10;;;;;;5054524;28;20301;-57
2023/09/27 13:23:43;;;;;;;6.75;2.30;;;21.90;64.00;;;;;;5060512;28;20357;-57
2023/09/27 13:26:11;;;;;;;3.67;2.03;;;21.90;64.10;;;;;;5059794;28;20195;-62
2023/09/27 13:28:37;;;;;;;7.95;2.70;;;21.90;64.10;;;;;;5059600;28;20337;-62
2023/09/27 13:31:06;;;;;;;3.88;2.28;;;22.00;64.30;;;;;;5060584;28;20199;-66
2023/09/27 13:33:34;;;;;;;6.95;2.40;;;22.00;64.30;;;;;;5062865;28;20540;-59
2023/09/27 13:36:04;;;;;;;6.18;2.42;;;22.00;64.30;;;;;;5004702;28;20204;-55
2023/09/27 13:38:32;;;;;;;4.47;2.53;;;22.00;64.40;;;;;;5060553;28;20223;-61
2023/09/27 13:41:00;;;;;;;5.70;2.50;;;22.00;64.40;;;;;;5062280;28;20209;-56
2023/09/27 13:43:39;;;;;;;11.88;2.20;;;22.00;64.70;;;;;;5022106;28;20691;-54
2023/09/27 13:46:07;;;;;;;4.25;2.15;;;22.00;64.60;;;;;;5051317;28;20221;-48
2023/09/27 13:48:35;;;;;;;8.40;2.50;;;22.00;64.60;;;;;;5058955;28;20242;-56
2023/09/27 13:51:35;;;;;;;7.35;2.38;;;22.00;64.60;;;;;;4997360;28;20202;-52
2023/09/27 13:54:03;;;;;;;4.45;2.30;;;22.00;64.80;;;;;;5046851;28;20226;-52
2023/09/27 13:57:08;;;;;;;5.32;2.50;;;22.00;64.80;;;;;;5050721;28;20253;-48
2023/09/27 13:59:39;;;;;;;6.60;2.60;;;22.00;64.90;;;;;;5051118;28;20268;-45
2023/09/27 14:02:14;;;;;;;3.67;2.05;;;22.10;65.00;;;;;;5060337;28;20277;-51
2023/09/27 14:04:44;;;;;;;8.65;2.55;;;22.10;65.90;;;;;;5023537;28;20333;-54
2023/09/27 14:07:12;;;;;;;7.47;2.40;;;22.10;65.30;;;;;;5059394;28;20207;-54
2023/09/27 14:10:00;;;;;;;8.35;2.40;;;22.20;65.30;;;;;;5025682;28;20230;-49
2023/09/27 14:12:27;;;;;;;4.32;2.38;;;22.10;65.20;;;;;;5063061;28;20268;-54
2023/09/27 14:14:55;;;;;;;7.05;2.38;;;22.10;65.00;;;;;;5061511;28;20291;-53
2023/09/27 14:17:23;;;;;;;5.55;2.80;;;22.10;65.00;;;;;;5065706;28;20211;-54
2023/09/27 14:19:53;;;;;;;8.68;2.75;;;22.20;65.10;;;;;;5065658;28;20233;-56
2023/09/27 14:22:21;;;;;;;5.30;2.28;;;22.20;65.10;;;;;;5063638;28;20237;-55
2023/09/27 14:24:48;;;;;;;8.45;2.47;;;22.20;65.10;;;;;;5064931;28;21011;-53
2023/09/27 14:27:25;;;;;;;6.70;2.30;;;22.20;65.00;;;;;;5064921;28;20813;-55
2023/09/27 14:30:31;;;;;;;6.35;2.13;;;22.10;64.80;;;;;;5046624;28;20777;-57
2023/09/27 14:45:08;;;;;;;13.57;7.53;;;22.20;64.60;;;;;;4921087;29;20239;-58
2023/09/27 14:47:44;;;;;;;13.70;7.18;;;22.20;64.90;;;;;;4958261;28;20247;-52
2023/09/27 14:53:40;;;;;;;11.90;5.40;;;22.20;64.90;;;;;;4971691;28;20606;-54
2023/09/27 14:56:18;;;;;;;10.60;5.53;;;22.20;64.80;;;;;;4997341;28;20212;-55
2023/09/27 14:58:58;;;;;;;11.45;5.35;;;22.30;64.90;;;;;;5000292;28;20286;-50
2023/09/27 15:01:27;;;;;;;10.10;4.93;;;22.20;64.80;;;;;;4999760;28;20351;-53
2023/09/27 15:03:54;;;;;;;9.60;4.95;;;22.20;64.80;;;;;;4998265;28;20257;-52